createdAt,value
2023-02-03T00:02:23.744Z,128.50
2023-02-03T00:04:51.619Z,120.40
2023-02-03T00:07:19.694Z,128.50
2023-02-03T00:09:47.521Z,135.60
2023-02-03T00:12:15.344Z,148.95
2023-02-03T00:14:43.076Z,136.23
2023-02-03T00:17:11.038Z,129.90
2023-02-03T00:19:38.740Z,132.38
2023-02-03T00:22:06.664Z,126.72
2023-02-03T00:24:34.497Z,126.68
2023-02-03T00:27:02.224Z,129.60
2023-02-03T00:29:30.105Z,133.27
2023-02-03T00:31:59.112Z,129.50
2023-02-03T00:34:30.460Z,124.40
2023-02-03T00:36:58.429Z,126.10
2023-02-03T00:39:26.267Z,122.00
2023-02-03T00:41:54.133Z,126.85
2023-02-03T00:44:21.858Z,130.73
2023-02-03T00:46:49.702Z,130.65
2023-02-03T00:49:17.565Z,132.35
2023-02-03T00:51:45.282Z,123.20
2023-02-03T00:54:13.776Z,125.57
2023-02-03T00:56:42.608Z,114.68
2023-02-03T00:59:14.410Z,124.30
2023-02-03T01:01:42.123Z,131.70
2023-02-03T01:04:10.433Z,120.93
2023-02-03T01:06:38.296Z,123.97
2023-02-03T01:09:06.184Z,129.25
2023-02-03T01:11:34.982Z,121.63
2023-02-03T01:14:02.697Z,136.48
2023-02-03T01:16:31.687Z,124.68
2023-02-03T01:18:59.471Z,127.97
2023-02-03T01:21:29.142Z,133.65
2023-02-03T01:23:57.638Z,131.00
2023-02-03T01:26:25.410Z,123.07
2023-02-03T01:28:54.272Z,133.25
2023-02-03T01:31:24.475Z,120.85
2023-02-03T01:33:54.209Z,121.85
2023-02-03T01:36:23.514Z,136.60
2023-02-03T01:38:52.309Z,125.60
2023-02-03T01:41:26.700Z,131.32
2023-02-03T01:43:55.321Z,129.52
2023-02-03T01:46:36.219Z,130.73
2023-02-03T01:49:18.997Z,125.75
2023-02-03T01:51:47.460Z,136.65
2023-02-03T01:54:19.324Z,137.13
2023-02-03T01:56:48.856Z,128.20
2023-02-03T01:59:18.404Z,126.88
2023-02-03T02:01:46.994Z,117.32
2023-02-03T02:04:15.120Z,128.32
2023-02-03T02:06:42.938Z,128.82
2023-02-03T02:09:13.359Z,139.75
2023-02-03T02:11:43.411Z,138.77
2023-02-03T02:14:11.414Z,143.05
2023-02-03T02:16:42.552Z,139.63
2023-02-03T02:19:10.339Z,140.38
2023-02-03T02:21:47.484Z,150.00
2023-02-03T02:24:27.403Z,138.48
2023-02-03T02:27:05.031Z,133.50
2023-02-03T02:29:45.128Z,140.82
2023-02-03T02:32:16.080Z,141.13
2023-02-03T02:34:44.334Z,143.23
2023-02-03T02:37:18.376Z,139.32
2023-02-03T02:39:48.720Z,128.88
2023-02-03T02:42:20.381Z,136.80
2023-02-03T02:44:56.893Z,141.80
2023-02-03T02:47:24.775Z,133.93
2023-02-03T02:49:59.684Z,146.38
2023-02-03T02:52:29.831Z,143.48
2023-02-03T02:55:02.348Z,138.68
2023-02-03T02:57:31.679Z,141.88
2023-02-03T03:00:00.441Z,137.95
2023-02-03T03:02:35.086Z,143.27
2023-02-03T03:05:06.176Z,148.35
2023-02-03T03:07:41.877Z,155.77
2023-02-03T03:10:12.158Z,149.27
2023-02-03T03:12:42.863Z,155.98
2023-02-03T03:15:30.887Z,134.32
2023-02-03T03:18:19.217Z,136.00
2023-02-03T03:20:48.008Z,132.23
2023-02-03T03:23:21.579Z,131.32
2023-02-03T03:26:15.743Z,124.88
2023-02-03T03:28:47.979Z,145.07
2023-02-03T03:31:17.033Z,141.30
2023-02-03T03:33:45.058Z,138.80
2023-02-03T03:36:33.725Z,131.23
2023-02-03T03:39:04.617Z,129.98
2023-02-03T03:41:35.350Z,117.03
2023-02-03T03:44:04.963Z,119.45
2023-02-03T03:46:35.719Z,123.53
2023-02-03T03:49:04.860Z,118.85
2023-02-03T03:51:43.968Z,115.18
2023-02-03T03:54:15.568Z,100.75
2023-02-03T03:56:50.555Z,97.65
2023-02-03T03:59:20.927Z,101.93
2023-02-03T04:01:50.209Z,80.80
2023-02-03T04:04:18.864Z,84.03
2023-02-03T04:06:46.695Z,90.43
2023-02-03T04:09:14.482Z,86.75
2023-02-03T04:12:00.619Z,82.25
2023-02-03T04:14:30.105Z,83.47
2023-02-03T04:16:58.273Z,89.35
2023-02-03T04:19:26.427Z,94.00
2023-02-03T04:21:54.287Z,92.28
2023-02-03T04:24:22.236Z,90.47
2023-02-03T04:26:50.024Z,90.47
2023-02-03T04:29:18.136Z,94.53
2023-02-03T04:31:45.938Z,85.20
2023-02-03T04:34:13.709Z,85.75
2023-02-03T04:36:41.495Z,81.25
2023-02-03T04:39:09.205Z,83.63
2023-02-03T04:41:36.893Z,83.07
2023-02-03T04:44:04.703Z,75.28
2023-02-03T04:46:32.512Z,83.47
2023-02-03T04:49:00.247Z,79.82
2023-02-03T04:51:28.050Z,88.78
2023-02-03T04:53:55.794Z,80.15
2023-02-03T04:56:23.723Z,78.25
2023-02-03T04:58:51.509Z,78.18
2023-02-03T05:01:19.368Z,78.70
2023-02-03T05:03:47.162Z,80.45
2023-02-03T05:06:14.924Z,77.45
2023-02-03T05:08:42.704Z,76.93
2023-02-03T05:11:10.671Z,86.10
2023-02-03T05:13:38.418Z,75.72
2023-02-03T05:16:06.575Z,93.68
2023-02-03T05:18:34.323Z,74.78
2023-02-03T05:21:02.126Z,76.68
2023-02-03T05:23:29.851Z,78.82
2023-02-03T05:25:57.671Z,73.95
2023-02-03T05:28:25.484Z,75.50
2023-02-03T05:30:53.386Z,80.32
2023-02-03T05:33:21.128Z,75.53
2023-02-03T05:35:49.054Z,81.93
2023-02-03T05:38:17.322Z,74.07
2023-02-03T05:41:03.867Z,79.03
2023-02-03T05:43:31.629Z,95.43
2023-02-03T05:46:03.177Z,91.63
2023-02-03T05:48:31.033Z,96.63
2023-02-03T05:50:58.893Z,193.88
2023-02-03T05:53:27.335Z,195.18
2023-02-03T05:55:55.320Z,102.38
2023-02-03T05:58:23.284Z,100.40
2023-02-03T06:00:51.061Z,87.25
2023-02-03T06:03:19.030Z,99.00
2023-02-03T06:05:46.849Z,111.28
2023-02-03T06:08:14.693Z,102.80
2023-02-03T06:10:42.429Z,150.07
2023-02-03T06:13:11.132Z,124.90
2023-02-03T06:15:38.868Z,111.35
2023-02-03T06:18:07.041Z,112.28
2023-02-03T06:20:35.290Z,118.68
2023-02-03T06:23:03.852Z,123.90
2023-02-03T06:25:32.689Z,156.50
2023-02-03T06:28:00.734Z,184.50
2023-02-03T06:30:29.071Z,127.15
2023-02-03T06:32:57.248Z,143.18
2023-02-03T06:35:24.960Z,137.73
2023-02-03T06:37:53.171Z,138.75
2023-02-03T06:40:21.624Z,131.60
2023-02-03T06:42:51.108Z,119.35
2023-02-03T06:45:19.149Z,121.30
2023-02-03T06:47:47.039Z,133.82
2023-02-03T06:50:16.448Z,128.77
2023-02-03T06:52:44.620Z,119.90
2023-02-03T06:55:12.538Z,144.27
2023-02-03T06:57:45.354Z,135.40
2023-02-03T07:00:19.639Z,149.35
2023-02-03T07:02:53.668Z,162.68
2023-02-03T07:05:21.808Z,160.40
2023-02-03T07:07:49.932Z,154.45
2023-02-03T07:10:17.774Z,165.60
2023-02-03T07:12:45.686Z,165.88
2023-02-03T07:15:13.937Z,162.75
2023-02-03T07:17:41.811Z,159.38
2023-02-03T07:20:09.681Z,155.68
2023-02-03T07:22:38.727Z,148.70
2023-02-03T07:25:06.743Z,152.13
2023-02-03T07:27:34.518Z,161.48
2023-02-03T07:30:02.394Z,172.75
2023-02-03T07:32:31.847Z,177.15
2023-02-03T07:35:01.352Z,191.98
2023-02-03T07:37:29.089Z,186.38
2023-02-03T07:39:56.812Z,209.88
2023-02-03T07:42:24.496Z,194.43
2023-02-03T07:44:53.189Z,178.32
2023-02-03T07:47:20.909Z,202.18
2023-02-03T07:49:48.671Z,191.13
2023-02-03T07:52:16.454Z,203.25
2023-02-03T07:54:44.290Z,199.85
2023-02-03T07:57:11.971Z,214.10
2023-02-03T07:59:39.745Z,193.63
2023-02-03T08:02:09.217Z,206.02
2023-02-03T08:04:37.208Z,200.35
2023-02-03T08:07:05.358Z,208.57
2023-02-03T08:09:33.176Z,207.82
2023-02-03T08:12:00.932Z,230.85
2023-02-03T08:14:28.768Z,224.50
2023-02-03T08:16:56.487Z,222.07
2023-02-03T08:19:24.191Z,205.88
2023-02-03T08:21:51.953Z,221.13
2023-02-03T08:24:19.774Z,208.93
2023-02-03T08:26:47.606Z,215.77
2023-02-03T08:29:18.706Z,205.93
2023-02-03T08:31:46.600Z,220.50
2023-02-03T08:34:14.421Z,211.32
2023-02-03T08:36:43.919Z,220.40
2023-02-03T08:39:12.028Z,212.90
2023-02-03T08:41:39.865Z,216.85
2023-02-03T08:44:07.624Z,211.20
2023-02-03T08:46:36.553Z,202.13
2023-02-03T08:49:04.448Z,210.27
2023-02-03T08:51:32.242Z,216.27
2023-02-03T08:54:00.144Z,212.55
2023-02-03T08:56:27.932Z,217.52
2023-02-03T08:58:56.198Z,228.18
2023-02-03T09:01:24.024Z,239.07
2023-02-03T09:03:51.992Z,233.35
2023-02-03T09:06:22.312Z,194.27
2023-02-03T09:08:50.975Z,201.25
2023-02-03T09:11:19.177Z,188.75
2023-02-03T09:13:47.182Z,193.27
2023-02-03T09:16:21.483Z,170.63
2023-02-03T09:18:49.407Z,181.32
2023-02-03T09:21:31.612Z,178.70
2023-02-03T09:24:02.590Z,182.02
2023-02-03T09:26:30.447Z,191.18
2023-02-03T09:28:58.272Z,182.30
2023-02-03T09:31:26.195Z,187.55
2023-02-03T09:33:53.970Z,183.20
2023-02-03T09:36:21.803Z,178.70
2023-02-03T09:38:49.508Z,183.55
2023-02-03T09:41:26.812Z,167.23
2023-02-03T09:44:05.621Z,175.70
2023-02-03T09:46:43.527Z,173.40
2023-02-03T09:49:29.619Z,162.48
2023-02-03T09:52:04.565Z,168.35
2023-02-03T09:54:35.501Z,166.23
2023-02-03T09:57:06.004Z,166.18
2023-02-03T09:59:35.981Z,173.65
2023-02-03T10:02:21.692Z,194.82
2023-02-03T10:05:08.970Z,174.23
2023-02-03T10:07:55.196Z,181.30
2023-02-03T10:10:32.707Z,184.93
2023-02-03T10:13:03.591Z,199.82
2023-02-03T10:15:49.865Z,181.80
2023-02-03T10:18:20.322Z,183.48
2023-02-03T10:20:49.134Z,174.20
2023-02-03T10:23:24.958Z,168.45
2023-02-03T10:25:57.920Z,172.13
2023-02-03T10:28:31.832Z,176.18
2023-02-03T10:31:01.253Z,173.65
2023-02-03T10:33:30.051Z,166.13
2023-02-03T10:36:20.515Z,179.18
2023-02-03T10:39:04.463Z,170.95
2023-02-03T10:41:32.634Z,161.25
2023-02-03T10:44:01.461Z,165.65
2023-02-03T10:46:30.705Z,159.55
2023-02-03T10:48:59.001Z,148.18
2023-02-03T10:51:32.032Z,146.57
2023-02-03T10:54:01.187Z,155.48
2023-02-03T10:56:39.871Z,151.70
2023-02-03T10:59:32.350Z,162.00
2023-02-03T11:02:08.233Z,183.07
2023-02-03T11:04:36.485Z,156.18
2023-02-03T11:07:06.994Z,160.88
2023-02-03T11:09:42.813Z,164.82
2023-02-03T11:12:15.473Z,156.75
2023-02-03T11:14:50.603Z,151.00
2023-02-03T11:17:23.127Z,153.38
2023-02-03T11:19:52.521Z,145.48
2023-02-03T11:22:46.805Z,161.80
2023-02-03T11:25:29.946Z,168.00
2023-02-03T11:28:04.372Z,153.13
2023-02-03T11:30:32.427Z,165.32
2023-02-03T11:33:03.948Z,153.52
2023-02-03T11:35:33.731Z,224.68
2023-02-03T11:38:02.235Z,174.10
2023-02-03T11:40:34.338Z,159.32
2023-02-03T11:43:03.617Z,158.18
2023-02-03T11:45:31.628Z,172.60
2023-02-03T11:47:59.384Z,161.93
2023-02-03T11:50:27.681Z,151.77
2023-02-03T11:52:58.658Z,156.90
2023-02-03T11:55:33.099Z,147.90
2023-02-03T11:58:03.580Z,137.98
2023-02-03T12:00:42.272Z,144.40
2023-02-03T12:03:28.503Z,138.70
2023-02-03T12:06:02.635Z,143.73
2023-02-03T12:08:36.589Z,146.60
2023-02-03T12:11:19.832Z,142.23
2023-02-03T12:14:06.716Z,144.88
2023-02-03T12:16:43.716Z,144.95
2023-02-03T12:19:14.944Z,143.18
2023-02-03T12:21:47.607Z,143.18
2023-02-03T12:24:22.424Z,141.10
2023-02-03T12:27:05.796Z,137.55
2023-02-03T12:32:04.922Z,130.35
2023-02-03T12:34:41.433Z,138.13
2023-02-03T12:37:11.256Z,127.30
2023-02-03T12:39:56.889Z,126.10
2023-02-03T12:42:57.355Z,136.80
2023-02-03T12:45:37.815Z,138.68
2023-02-03T12:48:14.353Z,148.45
2023-02-03T12:50:52.773Z,144.43
2023-02-03T12:53:20.701Z,137.73
2023-02-03T12:55:55.357Z,137.57
2023-02-03T12:58:26.247Z,136.73
2023-02-03T13:00:57.304Z,134.52
2023-02-03T13:03:40.403Z,132.80
2023-02-03T13:06:17.730Z,138.48
2023-02-03T13:08:51.237Z,143.75
2023-02-03T13:11:31.789Z,138.23
2023-02-03T13:14:04.812Z,138.13
2023-02-03T13:16:38.307Z,141.10
2023-02-03T13:19:15.267Z,141.80
2023-02-03T13:21:43.271Z,145.45
2023-02-03T13:24:12.007Z,149.38
2023-02-03T13:26:48.731Z,154.85
2023-02-03T13:29:25.752Z,142.88
2023-02-03T13:32:30.231Z,141.20
2023-02-03T13:35:21.603Z,143.48
2023-02-03T13:37:55.736Z,143.68
2023-02-03T13:40:23.569Z,148.10
2023-02-03T13:43:06.196Z,143.75
2023-02-03T13:45:45.894Z,147.97
2023-02-03T13:48:22.562Z,151.60
2023-02-03T13:50:51.633Z,143.57
2023-02-03T13:53:22.120Z,147.60
2023-02-03T13:55:53.102Z,140.95
2023-02-03T13:58:22.937Z,136.85
2023-02-03T14:00:50.750Z,145.27
2023-02-03T14:03:20.742Z,138.23
2023-02-03T14:05:49.650Z,135.00
2023-02-03T14:08:29.601Z,138.02
2023-02-03T14:11:16.239Z,135.07
2023-02-03T14:13:44.025Z,139.43
2023-02-03T14:16:34.990Z,142.30
2023-02-03T14:19:02.958Z,135.65
2023-02-03T14:21:43.318Z,145.98
2023-02-03T14:24:11.919Z,140.82
2023-02-03T14:27:00.965Z,142.75
2023-02-03T14:29:32.517Z,143.10
2023-02-03T14:32:07.311Z,141.27
2023-02-03T14:34:46.211Z,143.52
2023-02-03T14:37:17.073Z,149.55
2023-02-03T14:39:50.347Z,137.52
2023-02-03T14:45:01.709Z,129.40
2023-02-03T14:47:29.503Z,126.40
2023-02-03T14:50:15.344Z,135.80
2023-02-03T14:52:54.624Z,139.60
2023-02-03T14:55:22.498Z,138.43
2023-02-03T14:57:52.363Z,136.23
2023-02-03T15:00:20.335Z,134.80
2023-02-03T15:03:09.084Z,148.52
2023-02-03T15:05:37.494Z,138.25
2023-02-03T15:08:05.830Z,135.52
2023-02-03T15:10:39.787Z,138.77
2023-02-03T15:13:24.175Z,140.45
2023-02-03T15:15:53.793Z,146.23
2023-02-03T15:18:23.505Z,157.27
2023-02-03T15:20:55.983Z,162.98
2023-02-03T15:23:25.609Z,156.75
2023-02-03T15:26:00.858Z,164.65
2023-02-03T15:28:29.938Z,158.77
2023-02-03T15:31:07.328Z,159.85
2023-02-03T15:33:37.150Z,168.88
2023-02-03T15:36:07.552Z,158.55
2023-02-03T15:38:38.582Z,155.93
2023-02-03T15:41:08.739Z,178.25
2023-02-03T15:43:39.499Z,165.60
2023-02-03T15:46:07.617Z,164.23
2023-02-03T15:48:44.723Z,193.57
2023-02-03T15:51:16.564Z,162.77
2023-02-03T15:54:02.916Z,162.73
2023-02-03T15:56:36.343Z,159.77
2023-02-03T15:59:04.756Z,172.45
2023-02-03T16:01:32.970Z,162.52
2023-02-03T16:04:02.907Z,156.73
2023-02-03T16:06:40.796Z,155.65
2023-02-03T16:09:26.381Z,162.50
2023-02-03T16:12:06.155Z,162.95
2023-02-03T16:14:35.339Z,163.85
2023-02-03T16:17:06.123Z,163.45
2023-02-03T16:19:38.578Z,153.70
2023-02-03T16:22:28.811Z,161.45
2023-02-03T16:24:57.507Z,168.82
2023-02-03T16:27:30.640Z,157.98
2023-02-03T16:30:26.235Z,174.05
2023-02-03T16:33:27.943Z,181.77
2023-02-03T16:36:15.420Z,152.23
2023-02-03T16:39:05.584Z,161.98
2023-02-03T16:41:52.388Z,164.23
2023-02-03T16:44:38.894Z,168.38
2023-02-03T16:47:40.808Z,175.50
2023-02-03T16:50:38.338Z,161.82
2023-02-03T16:53:10.288Z,172.07
2023-02-03T16:55:38.064Z,169.40
2023-02-03T16:58:05.845Z,169.15
2023-02-03T17:00:33.753Z,176.43
2023-02-03T17:03:05.031Z,175.88
2023-02-03T17:05:32.964Z,185.27
2023-02-03T17:08:00.811Z,176.70
2023-02-03T17:10:28.700Z,168.52
2023-02-03T17:12:56.523Z,164.68
2023-02-03T17:15:24.443Z,169.77
2023-02-03T17:17:52.451Z,160.00
2023-02-03T17:20:22.604Z,163.50
2023-02-03T17:22:53.421Z,175.43
2023-02-03T17:25:21.973Z,184.80
2023-02-03T17:27:49.952Z,178.90
2023-02-03T17:30:18.058Z,181.32
2023-02-03T17:32:45.837Z,169.23
2023-02-03T17:35:13.635Z,164.93
2023-02-03T17:37:41.469Z,187.75
2023-02-03T17:54:04.904Z,172.88
2023-02-03T17:56:33.936Z,186.57
2023-02-03T17:59:02.759Z,182.25
2023-02-03T18:01:31.037Z,174.80
2023-02-03T18:04:00.480Z,178.27
2023-02-03T18:06:29.424Z,172.25
2023-02-03T18:09:02.515Z,236.10
2023-02-03T18:11:31.216Z,178.52
2023-02-03T18:13:59.239Z,171.23
2023-02-03T18:16:29.411Z,170.80
2023-02-03T18:18:57.818Z,179.25
2023-02-03T18:21:26.724Z,199.45
2023-02-03T18:23:59.966Z,246.73
2023-02-03T18:28:56.748Z,185.77
2023-02-03T18:31:28.236Z,181.95
2023-02-03T18:33:56.108Z,159.63
2023-02-03T18:36:24.157Z,163.75
2023-02-03T18:38:52.097Z,165.27
2023-02-03T18:41:22.110Z,166.45
2023-02-03T18:43:50.153Z,237.05
2023-02-03T18:46:19.764Z,174.00
2023-02-03T18:48:47.798Z,170.00
2023-02-03T18:51:16.908Z,160.35
2023-02-03T18:53:46.790Z,176.73
2023-02-03T18:56:16.609Z,158.48
2023-02-03T18:58:45.687Z,214.85
2023-02-03T19:01:32.038Z,192.18
2023-02-03T19:04:01.148Z,158.43
2023-02-03T19:06:32.815Z,160.25
2023-02-03T19:09:00.639Z,160.05
2023-02-03T19:11:28.638Z,151.45
2023-02-03T19:13:56.530Z,212.05
2023-02-03T19:16:24.659Z,171.75
2023-02-03T19:18:53.707Z,180.18
2023-02-03T19:21:25.246Z,196.63
2023-02-03T19:23:53.525Z,159.27
2023-02-03T19:26:21.294Z,151.85
2023-02-03T19:28:49.380Z,134.60
2023-02-03T19:31:17.300Z,139.90
2023-02-03T19:33:45.260Z,147.32
2023-02-03T19:36:13.661Z,146.32
2023-02-03T19:38:41.593Z,163.90
2023-02-03T19:41:09.876Z,173.95
2023-02-03T19:43:37.869Z,145.68
2023-02-03T19:46:06.025Z,129.77
2023-02-03T19:48:33.925Z,144.27
2023-02-03T19:51:01.987Z,137.25
2023-02-03T19:53:29.735Z,140.63
2023-02-03T19:55:58.627Z,151.38
2023-02-03T19:58:26.502Z,131.30
2023-02-03T20:00:54.622Z,134.85
2023-02-03T20:03:23.022Z,136.60
2023-02-03T20:05:53.087Z,126.32
2023-02-03T20:08:21.159Z,132.07
2023-02-03T20:10:49.525Z,138.30
2023-02-03T20:13:17.362Z,135.55
2023-02-03T20:15:47.671Z,128.98
2023-02-03T20:18:15.864Z,136.30
2023-02-03T20:20:43.830Z,133.77
2023-02-03T20:23:11.780Z,133.95
2023-02-03T20:25:39.672Z,128.35
2023-02-03T20:28:07.626Z,135.30
2023-02-03T20:30:36.699Z,135.30
2023-02-03T20:33:05.538Z,139.35
2023-02-03T20:35:33.323Z,132.25
2023-02-03T20:38:01.206Z,135.68
2023-02-03T20:40:29.897Z,140.85
2023-02-03T20:43:00.151Z,140.63
2023-02-03T20:45:28.386Z,138.73
2023-02-03T20:47:56.324Z,130.85
2023-02-03T20:50:34.272Z,140.45
2023-02-03T20:53:09.127Z,143.10
2023-02-03T20:55:37.213Z,143.63
2023-02-03T20:58:23.153Z,135.63
2023-02-03T21:00:52.329Z,134.63
2023-02-03T21:03:39.364Z,144.52
2023-02-03T21:06:14.940Z,142.25
2023-02-03T21:08:43.937Z,145.52
2023-02-03T21:11:13.719Z,143.90
2023-02-03T21:13:43.685Z,137.38
2023-02-03T21:16:19.528Z,132.80
2023-02-03T21:18:53.557Z,136.10
2023-02-03T21:21:28.025Z,132.57
2023-02-03T21:23:56.062Z,138.07
2023-02-03T21:26:25.242Z,138.85
2023-02-03T21:28:54.581Z,148.80
2023-02-03T21:31:33.420Z,154.82
2023-02-03T21:34:01.960Z,151.60
2023-02-03T21:36:35.006Z,146.20
2023-02-03T21:39:03.472Z,138.98
2023-02-03T21:41:34.762Z,172.38
2023-02-03T21:44:02.676Z,153.23
2023-02-03T21:46:33.333Z,150.93
2023-02-03T21:49:02.124Z,139.82
2023-02-03T21:51:33.125Z,150.15
2023-02-03T21:54:02.015Z,138.23
2023-02-03T21:56:38.600Z,140.05
2023-02-03T21:59:16.367Z,139.70
2023-02-03T22:01:44.235Z,138.25
2023-02-03T22:04:12.138Z,157.40
2023-02-03T22:06:49.219Z,161.20
2023-02-03T22:09:18.204Z,153.77
2023-02-03T22:11:46.343Z,156.40
2023-02-03T22:14:15.016Z,158.93
2023-02-03T22:16:43.536Z,164.15
2023-02-03T22:19:11.695Z,153.35
2023-02-03T22:21:39.999Z,172.88
2023-02-03T22:24:08.110Z,199.82
2023-02-03T22:26:35.991Z,154.98
2023-02-03T22:29:06.024Z,160.40
2023-02-03T22:31:33.972Z,174.85
2023-02-03T22:34:02.018Z,158.70
2023-02-03T22:36:29.999Z,160.60
2023-02-03T22:38:57.819Z,148.73
2023-02-03T22:41:25.783Z,159.23
2023-02-03T22:43:53.771Z,156.60
2023-02-03T22:46:22.080Z,149.52
2023-02-03T22:48:50.578Z,157.95
2023-02-03T22:51:18.620Z,149.27
2023-02-03T22:53:46.811Z,147.25
2023-02-03T22:56:14.688Z,154.88
2023-02-03T22:58:42.608Z,150.35
2023-02-03T23:01:10.486Z,158.40
2023-02-03T23:03:38.412Z,144.85
2023-02-03T23:06:06.393Z,156.57
2023-02-03T23:08:34.345Z,158.50
2023-02-03T23:11:02.190Z,157.75
2023-02-03T23:13:30.321Z,153.40
2023-02-03T23:15:58.465Z,150.90
2023-02-03T23:18:26.296Z,157.70
2023-02-03T23:20:54.192Z,161.18
2023-02-03T23:23:22.159Z,161.20
2023-02-03T23:25:49.956Z,156.82
2023-02-03T23:28:17.935Z,154.00
2023-02-03T23:30:45.911Z,145.50
2023-02-03T23:33:13.847Z,152.93
2023-02-03T23:35:47.752Z,156.20
2023-02-03T23:38:16.419Z,148.80
2023-02-03T23:40:44.396Z,138.35
2023-02-03T23:43:12.260Z,152.30
2023-02-03T23:45:40.474Z,149.52
2023-02-03T23:48:08.703Z,141.68
2023-02-03T23:50:36.646Z,148.88
2023-02-03T23:53:04.548Z,142.93
2023-02-03T23:55:32.460Z,147.20
2023-02-03T23:58:00.313Z,148.52
